Time;durP1;ratioP1;P1;durP2;ratioP2;P2;SDS_P1;SDS_P2;PMS_P1;PMS_P2;Temp;Humidity;BMP_temperature;BMP_pressure;BME280_temperature;BME280_humidity;BME280_pressure;Samples;Min_cycle;Max_cycle;Signal;HPM_P1;HPM_P2
2023/08/24 00:01:17;;;;;;;;;;;24.40;47.10;;;20.74;78.73;95667.22;5027784;28;20359;-43
2023/08/24 00:03:48;;;;;;;;;;;24.40;47.20;;;20.67;79.19;95670.44;5025834;28;19963;-47
2023/08/24 00:06:14;;;;;;;;;;;24.30;47.30;;;20.64;79.30;95664.91;5012855;28;20259;-50
2023/08/24 00:08:40;;;;;;;;;;;24.30;47.40;;;20.52;80.78;95658.25;5019223;28;19929;-46
2023/08/24 00:11:05;;;;;;;;;;;24.20;47.50;;;20.51;80.82;95653.16;5012855;28;20004;-44
2023/08/24 00:13:32;;;;;;;;;;;24.20;47.60;;;20.48;81.36;95651.88;5017837;28;20879;-44
2023/08/24 00:15:58;;;;;;;;;;;24.10;47.50;;;20.43;81.98;95649.38;5021577;28;19936;-44
2023/08/24 00:18:25;;;;;;;;;;;24.10;47.70;;;20.42;82.22;95644.28;5033611;28;19961;-43
2023/08/24 00:20:51;;;;;;;;;;;24.10;47.90;;;20.38;82.45;95646.84;5026018;28;19908;-43
2023/08/24 00:23:18;;;;;;;;;;;24.00;47.90;;;20.36;83.08;95648.28;5034108;28;19931;-43
2023/08/24 00:25:44;;;;;;;;;;;24.00;48.00;;;20.27;84.31;95651.03;5006355;28;19944;-45
2023/08/24 00:28:10;;;;;;;;;;;23.90;48.20;;;20.29;84.32;95652.28;5022593;28;19920;-43
2023/08/24 00:30:37;;;;;;;;;;;23.90;48.30;;;20.34;83.96;95645.94;5023702;28;19908;-43
2023/08/24 00:33:04;;;;;;;;;;;23.90;48.40;;;20.39;84.76;95648.44;5020682;28;19916;-43
2023/08/24 00:35:30;;;;;;;;;;;23.90;48.60;;;20.43;84.47;95648.56;5033642;28;20275;-43
2023/08/24 00:37:56;;;;;;;;;;;23.90;48.60;;;20.41;84.49;95650.81;5028432;28;19939;-43
2023/08/24 00:40:22;;;;;;;;;;;23.90;48.70;;;20.42;84.67;95647.78;5014408;28;19920;-43
2023/08/24 00:42:48;;;;;;;;;;;23.90;49.40;;;20.45;83.64;95646.34;5020795;28;19913;-43
2023/08/24 00:45:14;;;;;;;;;;;23.90;48.80;;;20.50;83.67;95632.63;5029932;28;19908;-43
2023/08/24 00:47:44;;;;;;;;;;;23.90;49.00;;;20.63;82.78;95630.84;5006990;28;19948;-44
2023/08/24 00:50:12;;;;;;;;;;;24.00;49.30;;;20.74;82.44;95626.63;5006960;28;20048;-46
2023/08/24 00:52:41;;;;;;;;;;;24.00;49.50;;;20.85;82.15;95629.75;5033455;28;19908;-48
2023/08/24 00:55:09;;;;;;;;;;;24.10;49.50;;;20.91;81.69;95636.56;5032992;28;19952;-49
2023/08/24 00:57:37;;;;;;;;;;;24.20;49.60;;;20.94;81.35;95636.69;5003868;28;19909;-48
2023/08/24 01:00:09;;;;;;;;;;;24.20;49.60;;;21.00;81.29;95629.97;5033345;28;19916;-50
2023/08/24 01:02:35;;;;;;;;;;;24.30;49.60;;;21.07;81.17;95640.25;5028534;28;20359;-47
2023/08/24 01:05:01;;;;;;;;;;;24.30;49.60;;;21.07;80.99;95634.84;5033135;28;20003;-48
2023/08/24 01:07:27;;;;;;;;;;;24.40;49.60;;;21.09;81.09;95637.22;5028927;28;19966;-47
2023/08/24 01:09:54;;;;;;;;;;;24.50;49.60;;;21.09;81.49;95634.50;5008579;28;19965;-44
2023/08/24 01:12:43;;;;;;;;;;;24.50;49.50;;;21.10;81.66;95633.41;5033187;28;19916;-46
2023/08/24 01:15:17;;;;;;;;;;;24.50;49.50;;;21.10;81.85;95633.41;5011007;28;20393;-46
2023/08/24 01:17:46;;;;;;;;;;;24.50;49.60;;;21.11;81.98;95624.13;5032375;28;19940;-44
2023/08/24 01:20:15;;;;;;;;;;;24.50;49.60;;;21.13;81.92;95621.91;5013296;28;19912;-46
2023/08/24 01:23:08;;;;;;;;;;;24.60;49.70;;;21.16;81.60;95624.75;5015356;28;20020;-46
2023/08/24 01:26:13;;;;;;;;;;;24.60;49.70;;;21.19;81.55;95618.66;5028359;28;19912;-47
2023/08/24 01:28:43;;;;;;;;;;;24.60;49.90;;;21.23;81.59;95625.00;5022468;28;19913;-45
2023/08/24 01:31:10;;;;;;;;;;;24.60;50.00;;;21.27;81.55;95619.69;5015273;28;19920;-49
2023/08/24 01:33:36;;;;;;;;;;;24.60;50.00;;;21.29;81.49;95616.69;5005373;28;19999;-42
2023/08/24 01:36:02;;;;;;;;;;;24.70;50.10;;;21.30;81.70;95604.72;5032296;28;19971;-46
2023/08/24 01:38:30;;;;;;;;;;;24.70;50.10;;;21.31;81.82;95603.56;5019127;28;20218;-43
2023/08/24 01:41:26;;;;;;;;;;;24.70;50.20;;;21.30;81.91;95593.88;5015935;28;19916;-48
2023/08/24 01:43:55;;;;;;;;;;;24.70;50.40;;;21.31;81.95;95598.16;5011164;28;19936;-46
2023/08/24 01:46:24;;;;;;;;;;;24.70;50.40;;;21.27;82.39;95603.44;4994024;28;19913;-47
2023/08/24 01:48:53;;;;;;;;;;;24.70;50.40;;;21.27;82.73;95595.31;4991462;28;19932;-45
2023/08/24 01:51:19;;;;;;;;;;;24.70;50.50;;;21.25;83.46;95595.66;5011284;28;19913;-44
2023/08/24 01:53:45;;;;;;;;;;;24.70;50.60;;;21.26;83.18;95596.44;4991501;28;19996;-45
2023/08/24 01:56:16;;;;;;;;;;;24.70;50.80;;;21.25;83.33;95587.53;5002635;28;20372;-46
2023/08/24 01:58:42;;;;;;;;;;;24.70;51.50;;;21.27;83.35;95576.34;4998678;28;20433;-43
2023/08/24 02:01:10;;;;;;;;;;;24.70;50.90;;;21.26;83.34;95583.69;5020694;28;19996;-44
2023/08/24 02:03:36;;;;;;;;;;;24.70;50.80;;;21.32;82.78;95578.88;5011834;28;19916;-50
2023/08/24 02:06:02;;;;;;;;;;;24.70;50.80;;;21.34;82.68;95567.69;5012422;28;19909;-47
2023/08/24 02:08:27;;;;;;;;;;;24.70;50.70;;;21.36;82.48;95563.56;5010948;28;19932;-45
2023/08/24 02:10:53;;;;;;;;;;;24.70;50.70;;;21.36;82.54;95573.59;5012220;28;20371;-51
2023/08/24 02:13:19;;;;;;;;;;;24.80;50.70;;;21.37;82.57;95573.28;5010940;28;19908;-50
2023/08/24 02:15:45;;;;;;;;;;;24.80;50.70;;;21.33;82.82;95572.31;5012363;28;20430;-51
2023/08/24 02:18:10;;;;;;;;;;;24.80;50.70;;;21.28;82.65;95575.25;5011513;28;19909;-49
2023/08/24 02:20:38;;;;;;;;;;;24.80;50.70;;;21.24;82.67;95574.31;5011099;28;20290;-46
2023/08/24 02:23:05;;;;;;;;;;;24.70;50.60;;;21.21;82.82;95580.41;5012011;28;19909;-46
2023/08/24 02:25:31;;;;;;;;;;;24.70;50.70;;;21.13;82.82;95570.44;5009997;28;20035;-45
2023/08/24 02:27:58;;;;;;;;;;;24.70;50.80;;;21.09;83.11;95561.38;5009453;28;19974;-49
2023/08/24 02:30:24;;;;;;;;;;;24.70;50.90;;;21.08;83.33;95562.53;5012070;28;20287;-47
2023/08/24 02:32:50;;;;;;;;;;;24.60;50.90;;;21.01;84.00;95550.31;5010625;28;19916;-49
2023/08/24 02:35:18;;;;;;;;;;;24.60;51.00;;;20.94;84.17;95547.34;5011640;28;20326;-43
2023/08/24 02:37:43;;;;;;;;;;;24.60;51.10;;;20.91;84.40;95550.72;5006218;28;19937;-46
2023/08/24 02:40:09;;;;;;;;;;;24.50;51.10;;;20.87;84.78;95540.88;5003592;28;20433;-45
2023/08/24 02:42:35;;;;;;;;;;;24.50;51.20;;;20.82;85.14;95544.56;5024804;28;20372;-45
2023/08/24 02:45:02;;;;;;;;;;;24.40;51.20;;;20.85;84.88;95543.91;5010329;28;19963;-46
2023/08/24 02:47:28;;;;;;;;;;;24.40;51.30;;;20.84;85.01;95544.22;5011228;28;20764;-44
2023/08/24 02:49:53;;;;;;;;;;;24.40;51.40;;;20.80;85.06;95538.69;5010767;28;19909;-47
2023/08/24 02:52:19;;;;;;;;;;;24.40;51.40;;;20.79;85.12;95537.13;5011567;28;19909;-46
2023/08/24 02:54:45;;;;;;;;;;;24.30;51.50;;;20.76;85.29;95535.84;5011461;28;19991;-44
2023/08/24 02:57:11;;;;;;;;;;;24.30;51.60;;;20.75;85.26;95539.69;5009762;28;19944;-44
2023/08/24 02:59:36;;;;;;;;;;;24.30;51.70;;;20.70;85.53;95537.19;5011565;28;20390;-44
2023/08/24 03:02:02;;;;;;;;;;;24.30;51.80;;;20.68;85.66;95538.63;5009834;28;20041;-46
2023/08/24 03:04:28;;;;;;;;;;;24.30;51.80;;;20.61;85.96;95536.44;5011397;28;20007;-44
2023/08/24 03:06:54;;;;;;;;;;;24.20;51.90;;;20.59;86.06;95524.38;5011308;28;19971;-44
2023/08/24 03:09:20;;;;;;;;;;;24.20;52.10;;;20.58;86.32;95525.50;5010095;28;20307;-46
2023/08/24 03:11:45;;;;;;;;;;;24.20;52.10;;;20.56;86.44;95523.13;5011324;28;19971;-47
2023/08/24 03:14:11;;;;;;;;;;;24.20;52.20;;;20.54;86.66;95517.25;5003722;28;20372;-49
2023/08/24 03:16:39;;;;;;;;;;;24.20;52.20;;;20.56;86.77;95513.09;5009535;28;19944;-46
2023/08/24 03:19:05;;;;;;;;;;;24.10;52.80;;;20.52;86.91;95514.84;5010823;28;19916;-45
2023/08/24 03:21:31;;;;;;;;;;;24.10;52.20;;;20.55;86.79;95510.72;4997131;28;19909;-50
2023/08/24 03:23:57;;;;;;;;;;;24.10;52.20;;;20.58;86.76;95512.75;5011267;28;20371;-45
2023/08/24 03:26:23;;;;;;;;;;;24.10;52.20;;;20.61;86.85;95512.09;5010026;28;19988;-43
2023/08/24 03:28:49;;;;;;;;;;;24.10;52.40;;;20.59;86.84;95514.38;4993190;28;19916;-46
2023/08/24 03:31:16;;;;;;;;;;;24.10;52.40;;;20.58;87.22;95531.69;5010322;28;20000;-47
2023/08/24 03:33:42;;;;;;;;;;;24.10;52.50;;;20.53;87.69;95530.00;4977429;28;19909;-44
2023/08/24 03:36:08;;;;;;;;;;;24.10;52.50;;;20.52;87.54;95527.59;5010768;28;19935;-43
2023/08/24 03:38:33;;;;;;;;;;;24.10;52.60;;;20.43;88.52;95524.94;4999849;28;20349;-47
2023/08/24 03:41:06;;;;;;;;;;;24.10;52.50;;;20.38;89.08;95524.34;5015071;28;19909;-48
2023/08/24 03:43:34;;;;;;;;;;;24.00;52.70;;;20.39;89.79;95532.13;5015650;28;19912;-46
2023/08/24 03:46:01;;;;;;;;;;;24.00;52.90;;;20.37;89.79;95528.97;5003344;28;19909;-47
2023/08/24 03:48:27;;;;;;;;;;;24.00;53.20;;;20.34;90.11;95525.00;5010745;28;19941;-49
2023/08/24 03:50:57;;;;;;;;;;;24.00;53.30;;;20.30;90.12;95520.56;5007255;28;19996;-46
2023/08/24 03:53:24;;;;;;;;;;;24.00;53.50;;;20.26;90.66;95522.34;5014618;28;20498;-44
2023/08/24 03:55:52;;;;;;;;;;;23.90;53.60;;;20.20;90.84;95519.03;5012507;28;19913;-45
2023/08/24 03:58:18;;;;;;;;;;;23.90;53.60;;;20.17;91.05;95522.38;4992096;28;19913;-44
2023/08/24 04:00:47;;;;;;;;;;;23.90;53.80;;;20.13;91.13;95517.97;5014819;28;19909;-47
2023/08/24 04:03:13;;;;;;;;;;;23.80;53.80;;;20.13;90.94;95521.47;5012813;28;19909;-44
2023/08/24 04:05:39;;;;;;;;;;;23.80;53.90;;;20.10;91.10;95525.59;5014242;28;19912;-45
2023/08/24 04:08:05;;;;;;;;;;;23.80;54.10;;;20.14;90.81;95533.06;5013374;28;20362;-44
2023/08/24 04:10:31;;;;;;;;;;;23.70;54.10;;;20.14;90.43;95533.06;5014747;28;19909;-49
2023/08/24 04:12:57;;;;;;;;;;;23.70;54.20;;;20.20;89.86;95526.34;4994930;28;19909;-48
2023/08/24 04:15:23;;;;;;;;;;;23.70;54.20;;;20.19;89.87;95524.78;5004158;28;19920;-45
2023/08/24 04:17:49;;;;;;;;;;;23.70;54.20;;;20.12;90.05;95519.88;5014102;28;19916;-48
2023/08/24 04:20:15;;;;;;;;;;;23.70;54.20;;;20.04;90.25;95518.78;5013648;28;20252;-46
2023/08/24 04:22:42;;;;;;;;;;;23.70;54.20;;;19.98;90.56;95520.09;5014100;28;19909;-47
2023/08/24 04:25:08;;;;;;;;;;;23.70;54.30;;;19.87;91.23;95513.50;5014134;28;20000;-45
2023/08/24 04:27:34;;;;;;;;;;;23.70;54.10;;;19.84;91.75;95506.81;5012896;28;19959;-49
2023/08/24 04:30:01;;;;;;;;;;;23.60;54.10;;;19.74;92.91;95509.06;5014228;28;19995;-44
2023/08/24 04:32:28;;;;;;;;;;;23.60;54.10;;;19.80;92.69;95515.88;5004457;28;20392;-48
2023/08/24 04:34:53;;;;;;;;;;;23.50;54.10;;;19.86;92.23;95526.19;5013644;28;19941;-47
2023/08/24 04:37:20;;;;;;;;;;;23.50;54.10;;;19.86;92.20;95525.41;5009828;28;19955;-51
2023/08/24 04:39:46;;;;;;;;;;;23.50;54.10;;;19.83;92.86;95526.84;5013958;28;19909;-48
2023/08/24 04:42:12;;;;;;;;;;;23.50;54.20;;;19.79;93.35;95519.72;5011444;28;19909;-47
2023/08/24 04:44:37;;;;;;;;;;;23.50;54.30;;;19.81;93.56;95520.97;5011052;28;20292;-50
2023/08/24 04:47:03;;;;;;;;;;;23.50;54.30;;;19.81;93.53;95525.59;5014255;28;19916;-48
2023/08/24 04:49:32;;;;;;;;;;;23.50;54.30;;;19.72;94.57;95522.94;5013384;28;20389;-47
2023/08/24 04:51:57;;;;;;;;;;;23.50;54.30;;;19.83;94.06;95520.66;5014639;28;20287;-48
2023/08/24 04:54:23;;;;;;;;;;;23.50;54.30;;;19.92;93.81;95526.81;5003712;28;19914;-48
2023/08/24 04:56:49;;;;;;;;;;;23.50;54.30;;;19.99;92.98;95531.69;5013831;28;20005;-48
2023/08/24 04:59:15;;;;;;;;;;;23.60;54.30;;;20.05;92.34;95538.50;5014414;28;20291;-49
2023/08/24 05:01:41;;;;;;;;;;;23.70;54.20;;;20.08;92.19;95530.53;5009425;28;19909;-45
2023/08/24 05:04:06;;;;;;;;;;;23.80;54.20;;;20.11;92.61;95524.47;5007309;28;19960;-47
2023/08/24 05:06:32;;;;;;;;;;;23.90;54.20;;;20.19;92.05;95533.69;5014422;28;19909;-48
2023/08/24 05:08:58;;;;;;;;;;;24.00;54.10;;;20.30;91.36;95524.03;5013032;28;19948;-46
2023/08/24 05:11:28;;;;;;;;;;;24.00;54.00;;;20.44;90.48;95529.22;5016243;28;20398;-48
2023/08/24 05:13:55;;;;;;;;;;;24.20;54.10;;;20.58;89.57;95529.00;5019112;28;19916;-48
2023/08/24 05:16:22;;;;;;;;;;;24.30;54.10;;;20.73;88.95;95530.31;5014045;28;20379;-50
2023/08/24 05:18:47;;;;;;;;;;;24.40;54.10;;;20.88;88.20;95531.63;5013941;28;19909;-47
2023/08/24 05:21:13;;;;;;;;;;;24.60;54.00;;;21.01;87.35;95533.28;5012847;28;19920;-48
2023/08/24 05:23:39;;;;;;;;;;;24.70;53.90;;;21.15;86.69;95532.97;5014021;28;19916;-51
2023/08/24 05:26:05;;;;;;;;;;;24.80;53.80;;;21.25;86.24;95536.06;5008487;28;19909;-45
2023/08/24 05:28:31;;;;;;;;;;;25.00;53.70;;;21.38;85.17;95531.50;5010035;28;19909;-47
2023/08/24 05:30:58;;;;;;;;;;;25.10;53.50;;;21.41;84.79;95532.78;5013800;28;19963;-45
2023/08/24 05:33:25;;;;;;;;;;;25.30;53.40;;;21.46;84.75;95537.97;5012564;28;19913;-46
2023/08/24 05:35:52;;;;;;;;;;;25.40;53.30;;;21.56;84.44;95542.16;5013622;28;19923;-46
2023/08/24 05:38:18;;;;;;;;;;;25.50;53.20;;;21.68;83.65;95545.69;5012454;28;19952;-46
2023/08/24 05:40:48;;;;;;;;;;;25.60;53.10;;;21.77;83.50;95533.97;5013729;28;19948;-47
2023/08/24 05:43:14;;;;;;;;;;;25.70;53.00;;;21.80;83.66;95534.06;5013448;28;19945;-50
2023/08/24 05:45:40;;;;;;;;;;;25.70;52.90;;;21.77;83.32;95540.16;4995892;28;20350;-47
2023/08/24 05:48:07;;;;;;;;;;;25.80;52.80;;;21.82;83.24;95542.66;5003909;28;19909;-46
2023/08/24 05:50:33;;;;;;;;;;;25.80;52.70;;;21.89;83.42;95533.97;5011834;28;19924;-47
2023/08/24 05:52:59;;;;;;;;;;;25.90;52.60;;;21.93;82.78;95534.88;5013454;28;19909;-47
2023/08/24 05:55:25;;;;;;;;;;;25.90;52.50;;;21.93;82.87;95535.66;5012267;28;19919;-46
2023/08/24 05:57:50;;;;;;;;;;;26.00;52.50;;;21.87;82.80;95537.03;5012986;28;19916;-47
2023/08/24 06:00:16;;;;;;;;;;;26.00;52.40;;;21.94;82.67;95539.19;5012697;28;19913;-46
2023/08/24 06:02:42;;;;;;;;;;;26.00;52.30;;;21.95;82.05;95536.13;5010674;28;20008;-46
2023/08/24 06:05:08;;;;;;;;;;;26.10;52.30;;;22.01;82.04;95536.69;5013158;28;20020;-45
2023/08/24 06:07:36;;;;;;;;;;;26.10;52.30;;;21.88;83.00;95529.69;5011631;28;19921;-46
2023/08/24 06:10:02;;;;;;;;;;;26.10;52.80;;;21.94;82.99;95529.13;5012632;28;20379;-46
2023/08/24 06:12:28;;;;;;;;;;;26.20;52.20;;;22.01;82.83;95530.47;5003854;28;19944;-46
2023/08/24 06:14:53;;;;;;;;;;;26.20;52.10;;;22.07;82.02;95539.97;5014826;28;20002;-45
2023/08/24 06:17:19;;;;;;;;;;;26.30;52.10;;;22.14;82.13;95540.19;5010609;28;20383;-50
2023/08/24 06:19:45;;;;;;;;;;;26.30;52.00;;;22.22;81.19;95539.31;5010614;28;19913;-48
2023/08/24 06:22:10;;;;;;;;;;;26.40;52.00;;;22.30;80.76;95532.19;5011822;28;19909;-46
2023/08/24 06:24:36;;;;;;;;;;;26.50;52.00;;;22.34;80.83;95539.31;5012064;28;19964;-47
2023/08/24 06:27:02;;;;;;;;;;;26.50;51.90;;;22.34;81.40;95535.78;5005678;28;20368;-48
2023/08/24 06:29:29;;;;;;;;;;;26.60;51.80;;;22.37;80.88;95533.19;5011178;28;19913;-45
2023/08/24 06:31:55;;;;;;;;;;;26.70;51.80;;;22.52;80.17;95536.34;5010995;28;20384;-49
2023/08/24 06:34:21;;;;;;;;;;;26.80;51.60;;;22.69;78.74;95541.53;5011345;28;19913;-50
2023/08/24 06:36:47;;;;;;;;;;;27.10;51.50;;;22.99;77.24;95543.94;5012793;28;19917;-46
2023/08/24 06:39:13;;;;;;;;;;;27.40;51.30;;;23.32;75.36;95558.09;5011697;28;20272;-50
2023/08/24 06:41:39;;;;;;;;;;;27.80;51.20;;;23.50;73.29;95563.19;5012428;28;19915;-50
2023/08/24 06:44:05;;;;;;;;;;;28.00;51.00;;;23.65;72.21;95570.59;5011255;28;20461;-48
2023/08/24 06:46:31;;;;;;;;;;;28.30;50.80;;;23.88;71.60;95570.03;5012378;28;19936;-48
2023/08/24 06:48:57;;;;;;;;;;;28.50;50.50;;;24.22;70.42;95573.97;5012509;28;20338;-50
2023/08/24 06:51:28;;;;;;;;;;;28.80;50.30;;;24.57;68.53;95575.97;5011397;28;19962;-47
2023/08/24 06:53:53;;;;;;;;;;;29.20;50.00;;;24.98;66.67;95571.06;5012549;28;19909;-48
2023/08/24 06:56:19;;;;;;;;;;;29.60;49.80;;;25.25;65.51;95572.00;5011276;28;20260;-46
2023/08/24 06:58:48;;;;;;;;;;;29.90;49.50;;;25.54;64.58;95568.69;5011947;28;19913;-47
2023/08/24 07:01:14;;;;;;;;;;;30.20;49.20;;;25.82;63.46;95564.91;5012007;28;20417;-48
2023/08/24 07:03:40;;;;;;;;;;;30.50;49.00;;;25.99;62.53;95558.22;5010888;28;19909;-52
2023/08/24 07:06:12;;;;;;;;;;;30.70;48.70;;;26.20;61.56;95555.03;5012054;28;20276;-47
2023/08/24 07:08:38;;;;;;;;;;;31.10;48.50;;;26.44;60.87;95562.81;5011031;28;19924;-47
2023/08/24 07:11:04;;;;;;;;;;;31.40;48.10;;;26.76;59.83;95557.88;5012066;28;19909;-51
2023/08/24 07:13:29;;;;;;;;;;;31.80;47.80;;;27.02;58.99;95558.22;5011078;28;19909;-48
2023/08/24 07:15:56;;;;;;;;;;;32.20;47.40;;;27.19;58.11;95557.66;5012037;28;20296;-49
2023/08/24 07:18:22;;;;;;;;;;;32.50;47.00;;;27.37;58.08;95558.66;5012301;28;19916;-49
2023/08/24 07:20:47;;;;;;;;;;;32.80;46.60;;;27.75;57.03;95562.19;5002528;28;19912;-48
2023/08/24 07:23:13;;;;;;;;;;;33.20;46.20;;;28.13;55.04;95554.72;5012093;28;19913;-48
2023/08/24 07:25:39;;;;;;;;;;;33.50;45.90;;;28.41;54.19;95551.47;5011940;28;20014;-51
2023/08/24 07:28:05;;;;;;;;;;;33.80;45.50;;;28.75;53.09;95551.28;5008749;28;19924;-48
2023/08/24 07:30:31;;;;;;;;;;;34.10;45.10;;;29.06;52.27;95549.91;5015907;28;19952;-49
2023/08/24 07:32:57;;;;;;;;;;;34.40;44.80;;;29.26;51.00;95537.44;5012220;28;19909;-48
2023/08/24 07:35:26;;;;;;;;;;;34.60;44.40;;;29.51;49.49;95537.53;4997946;28;19925;-50
2023/08/24 07:37:53;;;;;;;;;;;34.90;44.10;;;29.80;49.40;95539.56;5014726;28;20010;-49
2023/08/24 07:40:19;;;;;;;;;;;35.10;43.80;;;30.02;47.87;95534.88;5019782;28;20513;-49
2023/08/24 07:42:52;;;;;;;;;;;35.30;43.40;;;30.17;47.24;95531.75;5024949;28;19921;-47
2023/08/24 07:45:19;;;;;;;;;;;35.50;43.00;;;30.34;46.71;95532.97;5006961;28;19913;-48
2023/08/24 07:47:45;;;;;;;;;;;35.80;42.70;;;30.29;46.67;95540.81;5015914;28;19956;-49
2023/08/24 07:50:11;;;;;;;;;;;36.00;42.40;;;30.47;45.92;95540.81;4995017;28;19910;-50
2023/08/24 07:52:41;;;;;;;;;;;36.20;42.10;;;30.54;46.65;95535.28;5008362;28;19916;-49
2023/08/24 07:55:08;;;;;;;;;;;36.40;41.80;;;30.86;45.65;95544.28;5015281;28;20031;-49
2023/08/24 07:57:38;;;;;;;;;;;36.60;41.40;;;30.90;45.46;95544.28;4997839;28;19910;-51
2023/08/24 08:00:05;;;;;;;;;;;36.70;41.10;;;31.39;44.68;95534.28;5002461;28;19909;-49
2023/08/24 08:02:32;;;;;;;;;;;37.00;40.90;;;31.52;44.31;95540.88;5013476;28;20252;-48
2023/08/24 08:04:59;;;;;;;;;;;37.20;40.60;;;31.54;44.21;95540.50;5015479;28;20024;-51
2023/08/24 08:07:28;;;;;;;;;;;37.50;40.30;;;31.88;43.74;95542.66;5013925;28;19952;-49
2023/08/24 08:09:54;;;;;;;;;;;37.70;40.00;;;32.23;43.89;95547.16;5003005;28;19991;-50
2023/08/24 08:12:20;;;;;;;;;;;38.00;39.80;;;32.40;42.73;95548.19;5014282;28;19916;-50
2023/08/24 08:14:46;;;;;;;;;;;38.10;39.30;;;32.26;42.87;95540.81;4996233;28;19913;-53
2023/08/24 08:17:11;;;;;;;;;;;38.10;39.20;;;32.20;43.13;95537.72;5015238;28;20375;-51
2023/08/24 08:19:37;;;;;;;;;;;38.00;38.90;;;32.34;42.77;95542.34;5014057;28;20070;-53
2023/08/24 08:22:04;;;;;;;;;;;38.00;38.80;;;32.32;42.47;95525.41;5014990;28;19917;-51
2023/08/24 08:24:30;;;;;;;;;;;37.90;38.70;;;32.15;42.94;95535.38;5015257;28;19909;-51
2023/08/24 08:26:56;;;;;;;;;;;37.90;38.50;;;32.00;43.96;95523.72;5014040;28;19984;-51
2023/08/24 08:29:22;;;;;;;;;;;37.80;38.40;;;32.26;43.64;95533.34;5014417;28;19912;-52
2023/08/24 08:31:48;;;;;;;;;;;37.80;38.20;;;32.17;43.22;95538.53;5014415;28;20346;-54
2023/08/24 08:34:14;;;;;;;;;;;38.00;38.20;;;32.23;43.35;95538.88;5027597;28;19913;-47
2023/08/24 08:36:40;;;;;;;;;;;38.00;37.80;;;32.39;42.70;95532.84;5012939;28;19917;-49
2023/08/24 08:39:05;;;;;;;;;;;38.20;37.80;;;32.65;42.25;95545.22;5007358;28;20221;-50
2023/08/24 08:41:43;;;;;;;;;;;38.30;37.60;;;32.67;41.84;95546.38;5028182;28;19963;-51
2023/08/24 08:44:14;;;;;;;;;;;38.50;37.50;;;32.90;41.36;95539.44;5007395;28;19916;-50
2023/08/24 08:46:42;;;;;;;;;;;38.70;37.40;;;33.02;40.89;95554.72;5014071;28;20000;-49
2023/08/24 08:49:12;;;;;;;;;;;38.90;37.00;;;33.23;40.29;95548.94;5014611;28;19913;-48
2023/08/24 08:51:39;;;;;;;;;;;39.00;36.70;;;33.50;40.55;95543.53;5013552;28;19937;-48
2023/08/24 08:54:05;;;;;;;;;;;39.20;36.60;;;33.49;39.77;95544.66;5014430;28;19964;-48
2023/08/24 08:56:35;;;;;;;;;;;39.40;36.40;;;33.91;39.31;95547.28;5013127;28;19916;-54
2023/08/24 08:59:07;;;;;;;;;;;39.60;36.20;;;33.76;39.12;95555.78;5006279;28;20326;-49
2023/08/24 09:01:32;;;;;;;;;;;39.70;35.80;;;34.04;38.71;95556.59;5013148;28;19999;-48
2023/08/24 09:04:00;;;;;;;;;;;39.90;35.70;;;34.14;37.88;95546.56;5014472;28;20007;-51
2023/08/24 09:06:26;;;;;;;;;;;40.10;35.40;;;34.37;38.07;95548.56;5014272;28;20003;-50
2023/08/24 09:08:53;;;;;;;;;;;40.20;35.10;;;34.11;38.48;95550.94;5013223;28;20360;-51
2023/08/24 09:11:19;;;;;;;;;;;40.30;34.60;;;34.41;37.81;95543.75;4993472;28;20009;-49
2023/08/24 09:13:46;;;;;;;;;;;40.30;34.50;;;34.56;37.45;95539.56;5005708;28;19913;-48
2023/08/24 09:16:16;;;;;;;;;;;40.50;34.40;;;34.86;36.65;95535.09;5013769;28;19921;-48
2023/08/24 09:18:46;;;;;;;;;;;40.60;34.30;;;35.07;36.57;95531.94;5014098;28;19915;-50
2023/08/24 09:21:16;;;;;;;;;;;40.90;34.30;;;35.29;37.18;95525.94;5000895;28;19909;-49
2023/08/24 09:23:55;;;;;;;;;;;41.00;33.90;;;35.35;35.76;95529.78;5014029;28;19916;-49
2023/08/24 09:26:33;;;;;;;;;;;41.20;33.80;;;35.44;35.62;95527.22;5013109;28;19909;-52
2023/08/24 09:29:01;;;;;;;;;;;41.40;33.50;;;35.51;35.50;95517.97;5011993;28;19916;-50
2023/08/24 09:31:37;;;;;;;;;;;41.50;33.30;;;35.75;35.41;95519.44;5013566;28;19909;-48
2023/08/24 09:34:03;;;;;;;;;;;41.70;33.10;;;35.82;35.38;95511.00;5013216;28;19915;-49
2023/08/24 09:36:36;;;;;;;;;;;41.90;32.90;;;36.20;34.51;95506.94;5006545;28;19918;-51
2023/08/24 09:39:10;;;;;;;;;;;42.00;32.70;;;35.95;34.74;95502.78;4998692;28;19913;-48
2023/08/24 09:41:49;;;;;;;;;;;42.10;32.50;;;36.08;34.40;95505.66;5011366;28;20011;-48
2023/08/24 09:44:18;;;;;;;;;;;42.20;32.30;;;36.13;34.32;95505.13;5012156;28;20318;-50
2023/08/24 09:46:44;;;;;;;;;;;42.30;32.00;;;36.46;34.22;95507.88;5009306;28;19909;-48
2023/08/24 09:49:12;;;;;;;;;;;42.40;31.80;;;36.85;33.23;95506.06;5005896;28;20409;-48
2023/08/24 09:51:41;;;;;;;;;;;42.60;31.80;;;36.73;33.57;95502.84;5011182;28;20387;-48
2023/08/24 09:54:09;;;;;;;;;;;42.70;31.30;;;36.98;33.29;95504.94;5013505;28;20007;-49
2023/08/24 09:56:39;;;;;;;;;;;42.90;31.20;;;37.17;33.57;95500.44;5006215;28;19909;-48
2023/08/24 09:59:18;;;;;;;;;;;42.90;31.50;;;37.44;32.78;95505.59;5011505;28;20003;-49
2023/08/24 10:01:49;;;;;;;;;;;43.10;30.90;;;37.44;32.82;95496.47;4999503;28;20398;-49
2023/08/24 10:04:24;;;;;;;;;;;43.30;30.80;;;37.07;32.22;95490.41;5011729;28;19909;-48
2023/08/24 10:07:07;;;;;;;;;;;43.50;30.60;;;36.99;32.26;95486.28;5012252;28;20390;-49
2023/08/24 10:10:03;;;;;;;;;;;43.50;30.10;;;37.07;32.22;95486.84;4987371;28;20290;-49
2023/08/24 10:12:31;;;;;;;;;;;43.60;30.00;;;37.47;31.57;95479.75;5011574;28;20025;-48
2023/08/24 10:15:03;;;;;;;;;;;43.70;30.00;;;37.97;31.22;95471.88;5013780;28;19913;-49
2023/08/24 10:17:32;;;;;;;;;;;44.00;30.00;;;38.01;31.31;95466.97;5032806;28;19936;-50
2023/08/24 10:20:06;;;;;;;;;;;44.20;29.90;;;37.74;31.87;95470.97;5010624;28;19917;-48
2023/08/24 10:22:36;;;;;;;;;;;44.30;29.60;;;37.75;31.18;95460.63;5013988;28;19915;-47
2023/08/24 10:25:04;;;;;;;;;;;44.30;29.40;;;38.13;31.24;95457.81;5032546;28;19912;-48
2023/08/24 10:27:30;;;;;;;;;;;44.50;29.40;;;38.49;30.29;95456.66;5000700;28;19909;-48
2023/08/24 10:29:58;;;;;;;;;;;44.60;29.40;;;38.04;31.29;95446.59;5025419;28;19970;-50
2023/08/24 10:32:26;;;;;;;;;;;44.70;29.00;;;38.01;31.75;95446.72;5028957;28;20003;-48
2023/08/24 10:34:52;;;;;;;;;;;44.70;28.80;;;37.77;31.34;95451.88;5014398;28;19917;-48
2023/08/24 10:37:28;;;;;;;;;;;44.80;28.80;;;38.11;31.42;95442.81;5038879;23;19929;-57
2023/08/24 10:39:54;;;;;;;;;;;44.80;28.80;;;38.20;31.27;95442.91;5028151;28;20326;-54
2023/08/24 10:42:21;;;;;;;;;;;44.90;28.70;;;38.58;30.78;95430.91;5030266;28;20395;-56
2023/08/24 10:44:49;;;;;;;;;;;45.10;28.70;;;39.20;30.63;95436.59;5024268;28;19916;-55
2023/08/24 10:47:24;;;;;;;;;;;45.40;28.70;;;39.53;29.65;95422.25;5018492;28;19909;-57
2023/08/24 10:49:56;;;;;;;;;;;45.70;28.50;;;39.48;28.53;95420.03;5003521;28;19921;-56
2023/08/24 10:52:25;;;;;;;;;;;46.10;28.50;;;39.71;28.88;95422.31;5011540;28;19963;-57
2023/08/24 10:54:53;;;;;;;;;;;46.30;28.30;;;39.74;28.60;95410.25;4992302;28;19920;-59
2023/08/24 10:57:34;;;;;;;;;;;46.60;28.10;;;39.73;28.81;95414.28;5001367;28;19909;-58
2023/08/24 11:00:10;;;;;;;;;;;46.80;28.00;;;39.29;29.08;95416.41;5004595;28;19932;-54
2023/08/24 11:02:43;;;;;;;;;;;46.70;27.70;;;39.48;28.62;95406.09;5010529;28;19909;-55
2023/08/24 11:05:32;;;;;;;;;;;46.70;27.70;;;39.94;28.45;95407.06;5011315;28;19917;-54
2023/08/24 11:08:01;;;;;;;;;;;46.80;27.60;;;40.01;28.19;95405.97;5003718;28;19913;-57
2023/08/24 11:10:48;;;;;;;;;;;46.80;27.50;;;40.56;27.96;95408.06;5003381;28;19945;-59
2023/08/24 11:13:19;;;;;;;;;;;47.00;27.50;;;40.99;26.70;95404.13;4993354;28;20406;-59
2023/08/24 11:15:46;;;;;;;;;;;47.40;27.40;;;40.77;26.66;95409.91;5010707;28;19936;-54
2023/08/24 11:18:27;;;;;;;;;;;47.60;26.90;;;40.48;27.79;95411.16;5010982;28;19909;-56
2023/08/24 11:20:56;;;;;;;;;;;47.60;26.80;;;40.20;27.42;95401.22;5004361;28;19909;-53